Time;durP1;ratioP1;P1;durP2;ratioP2;P2;SDS_P1;SDS_P2;PMS_P1;PMS_P2;Temp;Humidity;BMP_temperature;BMP_pressure;BME280_temperature;BME280_humidity;BME280_pressure;Samples;Min_cycle;Max_cycle;Signal;HPM_P1;HPM_P2
2023/08/15 00:01:15;;;;;;;6.80;3.50;;;;;;;23.77;84.92;100236.23;181753;1257;57049;-73
2023/08/15 00:05:18;;;;;;;4.50;4.10;;;;;;;23.74;85.43;100242.84;181647;1257;43023;-73
2023/08/15 00:09:25;;;;;;;3.70;3.40;;;;;;;23.76;84.47;100238.77;181886;1257;43033;-72
2023/08/15 00:13:28;;;;;;;7.60;3.90;;;;;;;23.83;82.51;100235.95;181819;1257;43085;-71
2023/08/15 00:17:31;;;;;;;4.70;4.10;;;;;;;23.94;81.61;100230.95;181792;1257;43022;-72
2023/08/15 00:21:44;;;;;;;14.40;5.20;;;;;;;24.01;81.54;100228.09;181876;1257;57266;-69
2023/08/15 00:25:47;;;;;;;6.90;3.40;;;;;;;24.02;82.30;100226.38;181857;1257;43645;-73
2023/08/15 00:29:50;;;;;;;10.40;3.70;;;;;;;23.98;81.29;100218.09;181857;1257;43870;-69
2023/08/15 00:33:53;;;;;;;6.20;3.40;;;;;;;24.02;80.02;100217.59;181948;1257;43785;-71
2023/08/15 00:37:56;;;;;;;5.80;3.50;;;;;;;24.08;79.88;100215.90;181812;1257;43775;-69
2023/08/15 00:42:29;;;;;;;6.70;3.30;;;;;;;24.12;78.84;100208.81;181799;1257;58051;-71
2023/08/15 00:46:33;;;;;;;5.30;4.30;;;;;;;24.14;78.90;100208.67;181844;1257;43161;-70
2023/08/15 00:50:38;;;;;;;6.90;3.20;;;;;;;24.17;78.24;100210.98;181887;1257;43604;-72
2023/08/15 00:54:45;;;;;;;5.70;3.50;;;;;;;24.16;77.48;100209.95;181832;1257;43809;-71
2023/08/15 00:58:48;;;;;;;5.80;4.20;;;;;;;24.14;77.72;100213.43;181873;1257;43361;-71
2023/08/15 01:02:52;;;;;;;5.20;3.30;;;;;;;24.16;77.23;100216.21;181828;1257;58070;-65
2023/08/15 01:06:55;;;;;;;26.30;4.50;;;;;;;24.12;76.98;100214.08;181856;1257;43041;-69
2023/08/15 01:10:59;;;;;;;5.60;3.30;;;;;;;24.13;76.79;100216.66;181877;1257;43725;-70
2023/08/15 01:15:08;;;;;;;4.30;3.20;;;;;;;24.14;76.42;100215.98;181867;1257;43666;-74
2023/08/15 01:19:38;;;;;;;7.80;3.50;;;;;;;24.11;76.99;100215.41;181829;1257;43694;-69
2023/08/15 01:23:42;;;;;;;4.30;3.60;;;;;;;24.10;76.39;100218.36;181779;1257;57994;-72
2023/08/15 01:27:45;;;;;;;3.90;3.30;;;;;;;24.09;76.44;100217.30;181835;1257;43481;-72
2023/08/15 01:32:01;;;;;;;3.70;3.10;;;;;;;24.05;77.06;100209.18;181816;1257;43791;-75
2023/08/15 01:36:23;;;;;;;4.40;3.90;;;;;;;24.03;76.77;100207.48;181814;1257;43138;-73
2023/08/15 01:40:29;;;;;;;4.70;4.20;;;;;;;24.01;77.04;100202.55;181829;1257;43839;-67
2023/08/15 01:44:35;;;;;;;3.40;3.00;;;;;;;23.95;77.58;100206.45;181719;1257;58439;-69
2023/08/15 01:48:40;;;;;;;5.40;3.40;;;;;;;23.87;78.48;100212.13;181778;1257;43629;-73
2023/08/15 01:52:43;;;;;;;4.10;3.70;;;;;;;23.78;78.72;100215.79;181664;1257;43693;-70
2023/08/15 01:56:46;;;;;;;6.30;4.50;;;;;;;23.72;78.82;100211.93;181856;1257;43063;-69
2023/08/15 02:00:49;;;;;;;5.70;4.20;;;;;;;23.70;78.62;100208.39;181871;1257;43730;-70
2023/08/15 02:04:52;;;;;;;3.60;2.70;;;;;;;23.69;78.86;100209.36;181873;1257;58303;-72
2023/08/15 02:08:55;;;;;;;3.70;3.40;;;;;;;23.66;78.31;100209.66;181819;1257;43622;-72
2023/08/15 02:12:59;;;;;;;4.40;3.90;;;;;;;23.70;77.62;100211.15;181851;1257;42998;-69
2023/08/15 02:17:02;;;;;;;5.10;3.60;;;;;;;23.72;76.58;100214.32;181817;1257;42999;-70
2023/08/15 02:21:06;;;;;;;3.80;3.30;;;;;;;23.82;74.35;100209.47;181813;1257;43703;-70
2023/08/15 02:25:09;;;;;;;4.20;2.70;;;;;;;24.00;72.54;100206.59;181942;1257;58060;-74
2023/08/15 02:29:15;;;;;;;4.40;2.60;;;;;;;24.19;71.76;100208.95;181850;1257;43471;-72
2023/08/15 02:33:19;;;;;;;;;;;;;;;24.31;70.91;100214.09;181914;1257;43554;-72
2023/08/15 02:37:22;;;;;;;3.10;2.40;;;;;;;24.43;70.09;100219.36;181829;1257;43465;-71
2023/08/15 02:41:25;;;;;;;4.20;2.60;;;;;;;24.50;69.42;100221.20;181882;1257;42999;-70
2023/08/15 02:45:28;;;;;;;8.20;3.60;;;;;;;24.60;68.78;100214.94;181690;1257;58422;-71
2023/08/15 02:49:31;;;;;;;8.80;3.40;;;;;;;24.66;68.93;100209.06;181765;1257;43760;-71
2023/08/15 02:54:31;;;;;;;3.50;3.00;;;;;;;24.71;68.58;100206.16;182020;1256;43008;-70
2023/08/15 02:58:34;;;;;;;12.70;3.30;;;;;;;24.77;67.84;100213.20;181888;1257;44176;-73
2023/08/15 03:02:39;;;;;;;3.10;2.80;;;;;;;24.81;67.91;100216.98;181789;1257;43360;-73
2023/08/15 03:06:43;;;;;;;;;;;;;;;24.84;68.18;100221.19;181792;1257;58170;-73
2023/08/15 03:10:58;;;;;;;17.70;3.80;;;;;;;24.81;68.54;100229.76;181920;1257;43050;-72
2023/08/15 03:15:02;;;;;;;3.80;3.50;;;;;;;24.80;68.57;100236.02;181831;1257;43815;-70
2023/08/15 03:19:08;;;;;;;3.30;3.00;;;;;;;24.76;68.93;100234.76;181938;1257;43399;-73
2023/08/15 03:23:11;;;;;;;3.50;3.20;;;;;;;24.73;68.93;100244.13;181681;1257;43073;-70
2023/08/15 03:27:14;;;;;;;4.10;3.40;;;;;;;24.71;68.89;100247.83;182140;1256;58412;-73
2023/08/15 03:31:17;;;;;;;6.40;2.50;;;;;;;24.67;69.77;100249.77;181824;1257;43865;-73
2023/08/15 03:35:20;;;;;;;4.40;3.40;;;;;;;24.64;69.30;100257.29;181898;1257;43654;-69
2023/08/15 03:39:26;;;;;;;6.90;3.40;;;;;;;24.60;69.25;100253.55;181943;1257;43456;-68
2023/08/15 03:43:31;;;;;;;3.00;2.40;;;;;;;24.59;68.80;100256.79;181636;1257;44839;-69
2023/08/15 03:47:34;;;;;;;6.10;3.30;;;;;;;24.54;69.30;100267.44;181840;1256;57885;-72
2023/08/15 03:51:37;;;;;;;4.10;3.20;;;;;;;24.40;70.87;100276.26;181768;1259;43092;-70
2023/08/15 03:55:51;;;;;;;3.90;3.50;;;;;;;24.21;72.38;100276.90;181738;1256;43750;-71
2023/08/15 03:59:54;;;;;;;5.90;3.00;;;;;;;24.03;72.96;100276.34;181805;1257;43779;-64
2023/08/15 04:04:24;;;;;;;3.10;2.70;;;;;;;23.92;73.48;100282.97;181862;1258;43783;-74
2023/08/15 04:08:27;;;;;;;7.90;3.30;;;;;;;23.80;73.66;100287.27;181836;1257;57070;-74
2023/08/15 04:12:30;;;;;;;5.10;4.30;;;;;;;23.76;73.71;100282.69;181896;1257;43073;-66
2023/08/15 04:21:12;;;;;;;7.80;4.40;;;;;;;24.55;75.37;100289.55;175885;1256;87147;-71
2023/08/15 04:25:16;;;;;;;4.20;3.70;;;;;;;25.25;74.84;100282.15;181910;1256;42998;-71
2023/08/15 04:29:18;;;;;;;3.20;2.10;;;;;;;25.88;72.23;100280.98;181884;1256;57257;-72
2023/08/15 04:33:21;;;;;;;6.00;3.50;;;;;;;26.53;72.44;100287.95;181933;1256;43713;-69
2023/08/15 04:37:24;;;;;;;7.70;4.30;;;;;;;27.19;69.24;100282.25;182032;1256;43068;-72
2023/08/15 04:41:33;;;;;;;5.40;3.40;;;;;;;27.88;68.94;100283.48;182098;1257;43048;-68
2023/08/15 04:45:40;;;;;;;5.40;3.50;;;;;;;28.58;65.90;100289.48;181893;1257;42994;-72
2023/08/15 04:50:35;;;;;;;3.70;3.30;;;;;;;29.26;63.58;100290.39;181968;1256;57997;-71
2023/08/15 04:54:38;;;;;;;3.30;2.60;;;;;;;30.03;59.88;100287.90;181977;1256;43820;-71
2023/08/15 04:58:41;;;;;;;4.50;2.80;;;;;;;30.48;59.69;100284.50;181968;1257;43165;-69
2023/08/15 05:02:44;;;;;;;4.00;2.40;;;;;;;30.87;58.39;100284.75;181849;1257;43218;-71
2023/08/15 05:06:51;;;;;;;3.00;2.80;;;;;;;31.44;57.37;100282.05;181847;1257;184299;-70
2023/08/15 05:10:54;;;;;;;3.90;3.00;;;;;;;31.88;56.34;100285.36;181960;1257;57861;-69
2023/08/15 05:14:57;;;;;;;4.70;3.30;;;;;;;32.33;55.15;100290.98;181894;1256;43032;-71
2023/08/15 05:19:05;;;;;;;2.80;2.40;;;;;;;32.71;53.97;100291.70;181962;1255;43259;-70
2023/08/15 05:32:04;;;;;;;2.90;2.20;;;;;;;33.92;51.69;100292.73;178248;1257;58045;-90
2023/08/15 05:36:08;;;;;;;2.40;2.20;;;;;;;34.18;51.19;100299.52;181432;1259;44170;-90
2023/08/15 05:40:13;;;;;;;2.50;2.20;;;;;;;34.26;52.40;100294.17;181544;1254;43762;-92
2023/08/15 05:58:07;;;;;;;2.30;2.10;;;;;;;33.84;52.08;100306.50;161435;1259;44469;-92
2023/08/15 06:16:06;;;;;;;;;;;;;;;33.72;52.02;100309.46;162991;1259;58057;-91
2023/08/15 06:24:27;;;;;;;3.50;3.10;;;;;;;33.83;52.21;100302.54;181647;1260;43066;-71
2023/08/15 06:28:30;;;;;;;4.50;3.10;;;;;;;33.88;52.28;100303.17;181680;1259;43087;-68
2023/08/15 06:32:33;;;;;;;3.50;2.90;;;;;;;33.82;52.54;100303.91;181484;1259;42965;-71
2023/08/15 06:36:36;;;;;;;3.10;2.80;;;;;;;34.06;51.05;100300.95;181654;1260;58021;-71
2023/08/15 06:40:39;;;;;;;4.10;2.60;;;;;;;34.22;50.17;100296.68;181646;1259;43392;-72
2023/08/15 06:44:43;;;;;;;3.20;2.50;;;;;;;33.82;49.58;100303.02;181602;1259;43022;-72
2023/08/15 06:48:48;;;;;;;2.90;2.50;;;;;;;33.71;51.15;100304.23;181718;1259;43695;-72
2023/08/15 06:52:51;;;;;;;;;;;;;;;33.59;52.36;100306.20;181548;1259;43470;-69
2023/08/15 06:57:00;;;;;;;3.80;3.50;;;;;;;33.33;52.99;100308.33;181649;1259;58168;-72
2023/08/15 07:19:19;;;;;;;5.50;3.10;;;;;;;32.78;53.24;100306.02;168750;1259;58002;-91
2023/08/15 07:24:07;;;;;;;4.10;3.60;;;;;;;32.76;53.08;100308.33;147818;1253;86150;-69
2023/08/15 07:37:32;;;;;;;2.40;2.20;;;;;;;32.98;53.05;100311.73;181319;1263;44174;-90
2023/08/15 07:41:38;;;;;;;2.50;2.30;;;;;;;33.01;52.30;100305.73;181154;1260;59070;-89
2023/08/15 07:45:42;;;;;;;4.00;2.30;;;;;;;33.10;52.57;100299.49;181135;1260;43779;-92
2023/08/15 07:49:46;;;;;;;;;;;;;;;33.24;52.43;100296.55;181141;1260;44020;-90
2023/08/15 07:53:51;;;;;;;3.20;2.50;;;;;;;33.35;52.81;100301.09;181025;1260;43538;-90
2023/08/15 08:02:15;;;;;;;5.80;3.80;;;;;;;33.38;52.15;100297.52;177238;1258;57839;-90
2023/08/15 08:16:05;;;;;;;7.00;2.00;;;;;;;33.57;51.79;100293.40;178625;1254;85620;-68
2023/08/15 08:20:12;;;;;;;2.70;2.40;;;;;;;33.62;51.05;100290.36;181974;1256;44944;-69
2023/08/15 08:24:16;;;;;;;4.40;2.30;;;;;;;33.59;50.74;100286.29;181905;1257;59476;-68
2023/08/15 08:28:24;;;;;;;3.30;2.10;;;;;;;33.46;50.20;100279.92;181623;1253;82634;-87
2023/08/15 08:37:43;;;;;;;4.00;2.40;;;;;;;32.88;50.53;100282.20;181295;1259;44140;-87
2023/08/15 08:46:27;;;;;;;14.70;4.60;;;;;;;32.89;51.26;100278.27;181385;1259;57969;-89
2023/08/15 08:51:11;;;;;;;3.60;2.60;;;;;;;32.93;49.93;100280.87;181326;1261;44186;-90
2023/08/15 08:59:54;;;;;;;3.00;2.70;;;;;;;33.18;51.77;100279.02;175223;1257;43830;-89
2023/08/15 09:04:30;;;;;;;5.10;2.40;;;;;;;33.34;50.76;100278.73;181518;1259;86309;-68
2023/08/15 09:09:06;;;;;;;3.50;3.20;;;;;;;33.50;50.83;100276.05;181270;1260;58012;-90
2023/08/15 09:13:10;;;;;;;4.60;2.40;;;;;;;33.58;50.82;100277.30;181277;1259;43806;-90
2023/08/15 09:22:23;;;;;;;2.80;2.50;;;;;;;33.80;51.74;100264.98;181674;1253;86284;-72
2023/08/15 09:26:48;;;;;;;3.10;2.40;;;;;;;34.04;52.08;100259.92;181800;1254;83618;-70
2023/08/15 09:32:05;;;;;;;3.10;2.60;;;;;;;34.00;50.06;100263.67;181421;1255;84330;-70
2023/08/15 09:36:10;;;;;;;6.90;3.30;;;;;;;34.08;49.82;100263.10;181661;1254;82210;-90
2023/08/15 09:55:33;;;;;;;4.80;3.80;;;;;;;34.06;49.94;100258.80;181699;1257;58115;-89
2023/08/15 09:59:55;;;;;;;4.70;2.80;;;;;;;34.00;49.92;100258.17;181725;1257;44236;31
2023/08/15 10:43:15;;;;;;;4.30;2.50;;;;;;;34.08;49.86;100246.27;165227;1253;58209;31
2023/08/15 10:47:24;;;;;;;4.40;2.90;;;;;;;34.21;49.55;100247.89;181058;1261;43504;-86
2023/08/15 10:51:31;;;;;;;3.20;2.90;;;;;;;34.27;48.10;100252.39;181069;1260;44334;-86
2023/08/15 10:55:37;;;;;;;6.00;2.70;;;;;;;34.36;48.86;100253.31;180989;1262;44110;-86
2023/08/15 10:59:42;;;;;;;7.00;2.30;;;;;;;34.39;49.14;100248.42;181159;1260;43952;-86
2023/08/15 11:03:48;;;;;;;4.50;2.40;;;;;;;34.45;47.95;100255.02;181112;1259;59489;-86
2023/08/15 11:08:08;;;;;;;2.60;2.30;;;;;;;34.44;46.01;100252.42;181117;1260;43790;-86
2023/08/15 11:12:16;;;;;;;4.90;2.70;;;;;;;34.49;49.53;100249.70;181081;1260;43906;-86
2023/08/15 11:16:23;;;;;;;5.00;2.70;;;;;;;34.49;48.00;100243.90;181104;1261;43430;-87
2023/08/15 11:20:29;;;;;;;4.50;3.00;;;;;;;34.47;49.27;100237.16;181065;1261;43429;-86
2023/08/15 11:24:33;;;;;;;3.30;2.70;;;;;;;34.54;49.15;100237.90;181005;1261;58236;-86
2023/08/15 11:28:39;;;;;;;4.00;2.60;;;;;;;34.65;50.97;100237.81;181120;1261;43712;-86
2023/08/15 11:32:46;;;;;;;3.10;2.50;;;;;;;34.72;48.33;100234.23;181021;1261;43887;-85
2023/08/15 11:36:52;;;;;;;2.50;2.10;;;;;;;34.83;49.67;100227.83;181063;1261;43570;-86
2023/08/15 11:40:59;;;;;;;4.20;2.30;;;;;;;34.87;49.67;100231.44;181105;1261;43352;-85
2023/08/15 11:45:17;;;;;;;5.20;3.20;;;;;;;34.95;51.90;100229.92;181089;1261;59718;-86
2023/08/15 11:49:23;;;;;;;1.90;1.80;;;;;;;35.03;52.34;100221.52;181007;1261;44074;-85
2023/08/15 11:53:29;;;;;;;5.90;3.80;;;;;;;35.07;49.46;100213.85;181167;1260;43840;-85
2023/08/15 11:57:36;;;;;;;3.60;2.30;;;;;;;34.97;47.14;100208.75;181041;1261;43830;-86
2023/08/15 12:01:43;;;;;;;3.90;2.40;;;;;;;34.97;49.03;100213.33;181029;1262;44080;-86
2023/08/15 12:05:59;;;;;;;4.50;2.70;;;;;;;35.03;49.83;100212.62;181122;1260;58541;-86
2023/08/15 12:10:07;;;;;;;3.10;2.70;;;;;;;35.13;49.76;100205.77;181095;1261;44177;-85
2023/08/15 12:14:20;;;;;;;4.00;2.40;;;;;;;35.18;49.84;100201.73;181115;1260;43769;-86
2023/08/15 12:18:29;;;;;;;5.10;2.70;;;;;;;35.22;49.48;100203.36;181062;1264;43487;-85
2023/08/15 12:22:39;;;;;;;2.50;2.30;;;;;;;35.24;48.18;100196.81;181157;1261;43722;-86
2023/08/15 12:26:46;;;;;;;4.30;2.90;;;;;;;35.25;46.65;100189.23;181174;1260;58358;-87
2023/08/15 12:30:52;;;;;;;3.90;2.40;;;;;;;35.29;47.51;100182.39;181099;1260;43712;-86
2023/08/15 12:35:00;;;;;;;3.90;2.90;;;;;;;35.33;49.24;100171.53;181170;1260;43089;-86
2023/08/15 12:39:11;;;;;;;4.40;2.80;;;;;;;35.42;48.29;100165.14;181082;1260;44031;-86
2023/08/15 12:43:17;;;;;;;5.50;2.90;;;;;;;35.41;46.53;100166.75;181214;1260;43055;-85
2023/08/15 12:47:23;;;;;;;3.70;2.80;;;;;;;35.42;47.04;100162.63;181152;1261;58491;-86
2023/08/15 12:51:31;;;;;;;2.30;2.10;;;;;;;35.45;45.49;100168.35;181218;1260;43826;-86
2023/08/15 12:55:36;;;;;;;4.10;3.00;;;;;;;35.53;43.99;100166.98;181139;1260;44810;-86
2023/08/15 12:59:44;;;;;;;14.20;4.00;;;;;;;35.66;49.15;100165.55;181123;1261;44019;-86
2023/08/15 13:03:51;;;;;;;2.40;2.20;;;;;;;35.70;45.53;100166.55;181008;1260;43500;-86
2023/08/15 13:08:01;;;;;;;3.50;3.20;;;;;;;35.80;48.28;100165.70;181090;1260;58016;-85
2023/08/15 13:12:12;;;;;;;3.00;2.50;;;;;;;35.92;47.46;100158.03;181067;1260;43074;-86
2023/08/15 13:16:21;;;;;;;5.20;2.80;;;;;;;36.02;48.89;100155.53;181089;1261;43872;-86
2023/08/15 13:20:33;;;;;;;4.90;3.70;;;;;;;36.06;48.72;100158.25;180970;1261;43883;-86
2023/08/15 13:24:39;;;;;;;2.60;2.40;;;;;;;36.02;49.05;100151.77;181094;1262;43827;-85
2023/08/15 13:28:48;;;;;;;3.30;2.60;;;;;;;35.90;48.64;100143.61;181103;1261;58260;-86
2023/08/15 13:32:57;;;;;;;4.50;2.80;;;;;;;35.86;45.65;100141.30;181190;1260;43734;-85
2023/08/15 13:37:03;;;;;;;4.60;2.80;;;;;;;35.87;45.01;100134.21;181061;1260;44456;-86
2023/08/15 13:41:13;;;;;;;3.10;2.40;;;;;;;35.78;45.94;100126.81;181007;1260;43506;-85
2023/08/15 13:45:21;;;;;;;3.40;2.20;;;;;;;35.75;47.75;100120.72;181010;1262;44143;-86
2023/08/15 13:49:26;;;;;;;7.40;2.50;;;;;;;35.81;47.10;100114.78;181086;1260;58312;-85
2023/08/15 13:53:32;;;;;;;6.60;3.10;;;;;;;35.80;42.84;100118.21;180984;1260;44407;-85
2023/08/15 13:57:39;;;;;;;6.30;1.90;;;;;;;35.66;43.99;100119.65;181107;1260;44203;-86
2023/08/15 14:01:46;;;;;;;3.40;2.70;;;;;;;35.63;43.20;100120.41;181076;1261;44159;-85
2023/08/15 14:05:58;;;;;;;3.60;2.90;;;;;;;35.53;43.06;100120.48;181054;1260;43966;-86
2023/08/15 14:10:05;;;;;;;5.30;2.50;;;;;;;35.46;41.44;100117.46;181088;1261;60124;-85
2023/08/15 14:14:11;;;;;;;2.60;1.60;;;;;;;35.41;40.96;100114.98;181048;1261;43207;-85
2023/08/15 14:18:33;;;;;;;6.60;2.80;;;;;;;35.34;41.54;100111.27;181048;1264;43503;-86
2023/08/15 14:22:44;;;;;;;5.50;2.00;;;;;;;35.28;40.93;100115.44;181021;1261;43672;-86
2023/08/15 14:26:49;;;;;;;4.80;2.50;;;;;;;35.28;40.78;100115.77;181007;1261;43618;-85
2023/08/15 14:30:57;;;;;;;4.40;1.70;;;;;;;35.32;40.96;100120.45;181101;1261;58421;-85
2023/08/15 14:35:02;;;;;;;2.60;2.00;;;;;;;35.36;39.53;100120.70;181022;1260;43130;-85
2023/08/15 14:39:17;;;;;;;6.90;2.20;;;;;;;35.33;38.70;100115.59;181135;1260;43196;-85
2023/08/15 14:43:26;;;;;;;34.80;2.50;;;;;;;35.31;40.18;100113.90;181006;1260;44557;-85
2023/08/15 14:47:35;;;;;;;4.30;3.10;;;;;;;35.27;40.15;100109.15;181026;1261;43703;-85
2023/08/15 14:51:53;;;;;;;3.20;1.90;;;;;;;35.15;42.18;100108.75;181084;1261;58153;-85
2023/08/15 14:56:00;;;;;;;4.10;2.30;;;;;;;35.12;41.37;100100.61;181054;1264;43791;-84
2023/08/15 15:00:09;;;;;;;4.40;1.80;;;;;;;35.08;40.78;100100.05;181142;1260;43843;-85
2023/08/15 15:04:17;;;;;;;6.40;2.30;;;;;;;35.09;40.52;100096.01;180960;1261;43856;-84
2023/08/15 15:08:24;;;;;;;3.10;2.40;;;;;;;35.02;39.84;100094.64;180976;1260;43093;-84
2023/08/15 15:12:31;;;;;;;21.60;4.70;;;;;;;34.94;40.95;100091.55;181047;1261;58576;-84
2023/08/15 15:16:37;;;;;;;29.70;6.10;;;;;;;34.92;40.89;100093.41;181035;1264;43468;-84
2023/08/15 15:20:44;;;;;;;2.60;2.30;;;;;;;34.76;42.46;100095.32;181126;1260;44202;-84
2023/08/15 15:24:49;;;;;;;4.40;2.10;;;;;;;34.68;41.14;100090.98;180996;1261;43827;-84
2023/08/15 15:28:56;;;;;;;4.40;1.90;;;;;;;34.67;40.63;100092.77;181080;1260;43058;-84
2023/08/15 15:33:02;;;;;;;2.90;2.50;;;;;;;34.67;41.02;100092.05;181028;1260;60174;-84
2023/08/15 15:37:07;;;;;;;22.70;6.60;;;;;;;34.67;41.48;100091.83;181098;1260;43858;-84
2023/08/15 15:41:17;;;;;;;2.90;1.80;;;;;;;34.59;41.59;100094.73;181000;1260;44322;-86
2023/08/15 15:45:22;;;;;;;4.30;3.00;;;;;;;34.56;42.06;100090.38;180889;1261;43767;-87
2023/08/15 15:49:29;;;;;;;2.30;1.70;;;;;;;34.56;41.92;100088.61;180986;1261;43922;-87
2023/08/15 15:53:34;;;;;;;2.60;2.20;;;;;;;34.53;41.99;100089.66;181003;1261;58040;-87
2023/08/15 15:57:40;;;;;;;2.60;1.80;;;;;;;34.45;41.81;100093.23;181056;1260;43846;-87
2023/08/15 16:01:46;;;;;;;3.30;2.20;;;;;;;34.46;41.49;100092.33;181138;1261;44102;-87
2023/08/15 16:05:53;;;;;;;2.80;1.90;;;;;;;34.37;42.22;100089.67;181145;1261;43669;-87
2023/08/15 16:09:58;;;;;;;3.00;2.40;;;;;;;34.23;43.16;100090.69;181067;1261;43027;-86
2023/08/15 16:14:03;;;;;;;2.10;1.90;;;;;;;34.19;43.68;100091.66;181090;1260;59874;-86
2023/08/15 16:18:09;;;;;;;;;;;;;;;34.19;43.97;100093.80;181248;1251;43751;-90
2023/08/15 16:22:22;;;;;;;4.60;2.50;;;;;;;34.15;43.75;100096.55;181500;1257;43787;-89
2023/08/15 16:31:15;;;;;;;4.50;3.10;;;;;;;33.96;44.63;100108.55;181118;1260;45485;-89
2023/08/15 16:35:21;;;;;;;11.30;3.60;;;;;;;33.83;44.53;100110.11;181040;1260;59677;-89
2023/08/15 16:39:27;;;;;;;4.20;2.30;;;;;;;33.70;45.65;100117.15;180983;1260;43679;-89
2023/08/15 16:43:37;;;;;;;11.20;2.90;;;;;;;33.56;47.08;100121.33;181140;1260;44015;-89
2023/08/15 16:47:50;;;;;;;4.60;2.50;;;;;;;33.40;47.29;100132.84;181406;1260;85924;-70
2023/08/15 16:51:53;;;;;;;2.80;2.30;;;;;;;33.34;47.18;100143.61;181584;1259;43765;-71
2023/08/15 16:55:57;;;;;;;5.40;3.00;;;;;;;33.22;47.66;100151.55;181531;1260;59415;-71
2023/08/15 17:00:00;;;;;;;2.90;2.50;;;;;;;33.06;48.93;100153.48;181596;1259;43076;-70
2023/08/15 17:04:03;;;;;;;5.40;2.40;;;;;;;32.91;49.27;100165.19;181702;1259;43467;-71
2023/08/15 17:08:38;;;;;;;9.60;2.80;;;;;;;32.68;50.55;100172.27;181276;1260;287968;-66
2023/08/15 17:12:41;;;;;;;5.70;3.00;;;;;;;32.46;52.20;100178.61;181686;1259;43728;-69
2023/08/15 17:16:51;;;;;;;5.80;2.40;;;;;;;32.18;52.80;100177.30;181721;1259;58311;-72
2023/08/15 17:20:54;;;;;;;33.20;6.50;;;;;;;31.96;53.48;100183.98;181566;1259;43723;-71
2023/08/15 17:24:58;;;;;;;36.70;6.80;;;;;;;31.78;54.10;100186.45;181654;1259;43604;-69
2023/08/15 17:29:01;;;;;;;9.30;3.70;;;;;;;31.59;53.71;100187.64;181717;1258;43057;-71
2023/08/15 17:33:05;;;;;;;10.40;4.90;;;;;;;31.45;53.79;100186.32;181684;1259;43843;-68
2023/08/15 17:37:08;;;;;;;61.30;12.00;;;;;;;31.31;54.97;100189.11;181568;1259;58549;-69
2023/08/15 17:41:11;;;;;;;14.50;3.90;;;;;;;31.11;55.25;100186.62;181689;1259;43012;-70
2023/08/15 17:45:14;;;;;;;4.90;3.70;;;;;;;30.87;55.30;100190.48;181689;1257;43050;-70
2023/08/15 17:49:24;;;;;;;3.50;3.00;;;;;;;30.59;56.00;100193.83;181787;1257;43626;-69
2023/08/15 17:53:28;;;;;;;5.80;2.60;;;;;;;30.19;56.92;100195.88;181872;1257;43055;-70
2023/08/15 18:02:00;;;;;;;12.70;6.00;;;;;;;29.29;58.16;100190.63;158122;1258;44368;-86
2023/08/15 18:06:06;;;;;;;11.20;3.70;;;;;;;28.87;59.39;100191.02;181232;1258;43809;-87
2023/08/15 18:10:10;;;;;;;4.60;3.20;;;;;;;28.49;59.88;100197.67;181225;1257;44402;-87
2023/08/15 18:14:14;;;;;;;9.60;4.60;;;;;;;28.13;60.73;100200.52;181178;1258;43878;-87
2023/08/15 18:18:18;;;;;;;4.70;3.00;;;;;;;27.84;61.71;100197.28;181267;1258;58025;-87
2023/08/15 18:22:22;;;;;;;4.50;4.10;;;;;;;27.56;64.34;100193.89;181244;1259;43190;-87
2023/08/15 18:26:27;;;;;;;5.50;3.40;;;;;;;27.41;64.60;100202.09;181109;1258;43833;-86
2023/08/15 18:30:32;;;;;;;7.80;3.60;;;;;;;27.33;66.01;100203.66;181126;1258;43821;-87
2023/08/15 18:34:36;;;;;;;;;;;;;;;27.25;67.68;100202.55;181302;1257;43742;-87
2023/08/15 18:38:41;;;;;;;41.10;11.20;;;;;;;27.14;67.43;100209.30;181292;1257;58060;-88
2023/08/15 18:42:47;;;;;;;70.70;19.50;;;;;;;27.06;67.17;100211.63;181275;1257;43676;-87
2023/08/15 18:46:51;;;;;;;41.20;14.80;;;;;;;27.03;67.31;100218.11;181301;1259;44103;-88
2023/08/15 18:50:56;;;;;;;29.40;11.00;;;;;;;27.01;67.98;100225.59;181177;1257;43849;-87
2023/08/15 18:55:01;;;;;;;22.80;9.30;;;;;;;26.97;67.53;100231.19;181234;1257;43713;-88
2023/08/15 18:59:07;;;;;;;14.30;8.00;;;;;;;26.97;67.85;100236.57;181221;1257;57955;-86
2023/08/15 19:03:19;;;;;;;13.30;7.70;;;;;;;26.95;67.55;100233.88;181309;1258;43877;-88
2023/08/15 19:07:24;;;;;;;8.80;5.60;;;;;;;26.89;68.49;100225.31;181235;1258;43688;-86
2023/08/15 19:11:43;;;;;;;9.30;6.40;;;;;;;26.71;69.69;100219.17;181360;1257;43621;-87
2023/08/15 19:16:19;;;;;;;11.60;6.90;;;;;;;26.52;69.95;100213.84;181231;1257;43940;-87
2023/08/15 19:20:26;;;;;;;5.60;4.80;;;;;;;26.37;70.46;100211.50;181264;1257;58974;-88
2023/08/15 19:24:30;;;;;;;6.30;4.50;;;;;;;26.25;70.76;100207.45;181217;1260;43836;-87
2023/08/15 19:28:35;;;;;;;11.00;4.50;;;;;;;26.15;71.16;100206.94;181192;1257;44514;-86
2023/08/15 19:32:45;;;;;;;9.30;5.30;;;;;;;26.00;71.73;100217.36;181219;1257;43764;-86
2023/08/15 19:36:49;;;;;;;8.90;5.00;;;;;;;25.92;72.35;100224.88;181250;1260;43465;-86
2023/08/15 19:41:00;;;;;;;6.60;4.90;;;;;;;25.86;72.61;100231.47;181186;1257;58673;-87
2023/08/15 19:45:12;;;;;;;15.90;8.00;;;;;;;25.78;73.81;100232.61;180953;1260;44217;-88
2023/08/15 19:49:16;;;;;;;9.80;6.00;;;;;;;25.67;74.80;100236.13;181097;1260;44096;-88
2023/08/15 19:53:22;;;;;;;7.80;5.40;;;;;;;25.62;75.40;100235.31;181260;1258;44178;-87
2023/08/15 19:57:26;;;;;;;7.00;5.90;;;;;;;25.57;76.31;100239.43;181186;1257;43681;-87
2023/08/15 20:01:31;;;;;;;12.20;6.90;;;;;;;25.54;76.74;100246.58;181307;1257;59179;-87
2023/08/15 20:05:36;;;;;;;;;;;;;;;25.48;76.70;100245.59;181279;1257;43052;-87
2023/08/15 20:09:41;;;;;;;12.20;5.40;;;;;;;25.38;78.06;100244.55;181393;1257;43467;-87
2023/08/15 20:13:58;;;;;;;9.50;6.90;;;;;;;25.21;79.25;100246.85;181383;1257;43754;-87
2023/08/15 20:18:07;;;;;;;10.30;7.20;;;;;;;25.09;79.58;100249.42;181289;1257;43342;-86
2023/08/15 20:22:11;;;;;;;10.10;8.50;;;;;;;25.03;80.68;100252.29;181156;1257;58249;-86
2023/08/15 20:26:17;;;;;;;10.00;7.20;;;;;;;24.95;81.43;100258.51;181127;1257;44165;-86
2023/08/15 20:30:24;;;;;;;8.30;5.70;;;;;;;24.85;82.79;100261.17;181398;1257;43803;-87
2023/08/15 20:34:28;;;;;;;10.80;6.80;;;;;;;24.80;83.73;100251.81;181299;1257;44401;-87
2023/08/15 20:38:33;;;;;;;7.50;5.40;;;;;;;24.77;84.18;100253.09;181330;1257;43877;-86
2023/08/15 20:42:37;;;;;;;11.00;7.20;;;;;;;24.71;84.62;100255.35;181356;1257;58250;-87
2023/08/15 20:46:42;;;;;;;8.50;6.10;;;;;;;24.66;84.64;100254.84;181344;1257;43788;-87
2023/08/15 20:50:45;;;;;;;10.50;6.10;;;;;;;24.63;84.99;100250.56;181341;1257;43376;-86
2023/08/15 20:54:50;;;;;;;9.50;7.00;;;;;;;24.59;85.17;100252.77;181262;1257;43979;-86
2023/08/15 20:58:55;;;;;;;9.30;7.10;;;;;;;24.49;85.98;100258.69;181302;1257;43720;-87
2023/08/15 21:03:04;;;;;;;10.60;7.10;;;;;;;24.40;86.27;100255.23;181294;1257;59168;-86
2023/08/15 21:07:09;;;;;;;9.40;6.40;;;;;;;24.37;85.16;100255.05;181280;1257;44076;-87
2023/08/15 21:11:15;;;;;;;14.10;8.10;;;;;;;24.38;85.33;100255.24;181313;1257;44445;-87
2023/08/15 21:15:34;;;;;;;;;;;;;;;24.37;85.54;100252.56;181302;1257;44241;-90
2023/08/15 21:19:38;;;;;;;10.30;8.50;;;;;;;24.28;86.42;100250.06;181504;1257;43516;-89
2023/08/15 21:23:42;;;;;;;6.60;6.00;;;;;;;24.14;87.44;100247.30;181295;1257;58008;-90
2023/08/15 21:27:50;;;;;;;7.30;6.40;;;;;;;24.09;86.47;100256.23;181418;1257;43764;-89
2023/08/15 21:32:12;;;;;;;8.10;6.80;;;;;;;24.10;86.97;100253.59;181486;1257;44033;-89
2023/08/15 21:36:25;;;;;;;13.80;7.20;;;;;;;24.04;87.57;100253.89;181403;1260;44245;-90
2023/08/15 21:40:33;;;;;;;7.60;6.90;;;;;;;23.91;88.50;100251.52;181517;1258;44074;-90
2023/08/15 21:44:37;;;;;;;17.20;7.70;;;;;;;23.84;87.89;100256.50;181397;1257;58437;-90
2023/08/15 21:48:41;;;;;;;9.00;8.00;;;;;;;23.81;87.24;100261.41;181508;1257;44078;-89